Time,TemperatureF,DewpointF,PressureIn,WindDirection,WindDirectionDegrees,WindSpeedMPH,WindSpeedGustMPH,Humidity,HourlyPrecipIn,Conditions,Clouds,dailyrainin,SoftwareType,DateUTC
2013-03-19 00:07:00,43.3,42.0,29.99,SSE,167,2.0,3.0,96,0.01,,,0.00,weatherlink.com 1.10,2013-03-19 04:07:00,
2013-03-19 00:22:00,43.3,43.0,30.00,SSE,167,1.0,1.0,97,0.01,,,0.00,weatherlink.com 1.10,2013-03-19 04:22:00,
2013-03-19 00:37:00,43.4,43.0,30.00,SSE,165,1.0,3.0,97,0.00,,,0.00,weatherlink.com 1.10,2013-03-19 04:37:00,
2013-03-19 00:52:00,43.0,42.0,30.01,SSE,156,2.0,3.0,96,0.00,,,0.00,weatherlink.com 1.10,2013-03-19 04:52:00,
2013-03-19 01:07:00,42.9,42.0,30.02,South,171,0.0,1.0,97,0.00,,,0.00,weatherlink.com 1.10,2013-03-19 05:07:00,
2013-03-19 01:22:00,42.8,42.0,30.02,SE,134,0.0,0.0,97,0.00,,,0.00,weatherlink.com 1.10,2013-03-19 05:22:00,
2013-03-19 01:37:00,42.5,42.0,30.01,SSE,150,0.0,0.0,97,0.00,,,0.00,weatherlink.com 1.10,2013-03-19 05:37:00,
2013-03-19 01:52:00,42.5,42.0,30.02,SSE,162,0.0,0.0,97,0.00,,,0.00,weatherlink.com 1.10,2013-03-19 05:52:00,
2013-03-19 02:07:00,42.9,42.0,30.02,WNW,283,1.0,2.0,98,0.00,,,0.00,weatherlink.com 1.10,2013-03-19 06:07:00,
2013-03-19 02:22:00,42.0,41.0,30.01,WNW,283,0.0,0.0,97,0.00,,,0.00,weatherlink.com 1.10,2013-03-19 06:22:00,
2013-03-19 02:37:00,41.7,41.0,30.01,WNW,284,0.0,0.0,97,0.00,,,0.00,weatherlink.com 1.10,2013-03-19 06:37:00,
2013-03-19 03:07:00,42.2,42.0,30.02,SW,222,0.0,2.0,98,0.00,,,0.00,weatherlink.com 1.10,2013-03-19 07:07:00,
2013-03-19 03:22:00,42.1,42.0,30.02,WNW,293,0.0,2.0,98,0.00,,,0.00,weatherlink.com 1.10,2013-03-19 07:22:00,
2013-03-19 03:37:00,41.9,41.0,30.02,SE,136,0.0,2.0,98,0.00,,,0.00,weatherlink.com 1.10,2013-03-19 07:37:00,
2013-03-19 03:52:00,42.0,42.0,30.02,WNW,300,0.0,3.0,98,0.00,,,0.00,weatherlink.com 1.10,2013-03-19 07:52:00,
2013-03-19 04:08:00,42.2,42.0,30.02,ENE,77,2.0,3.0,98,0.00,,,0.00,weatherlink.com 1.10,2013-03-19 08:08:00,
2013-03-19 04:23:00,42.9,42.0,30.02,ESE,115,0.0,2.0,98,0.00,,,0.00,weatherlink.com 1.10,2013-03-19 08:23:00,
2013-03-19 04:38:00,42.8,42.0,30.02,WNW,294,0.0,2.0,98,0.00,,,0.00,weatherlink.com 1.10,2013-03-19 08:38:00,
2013-03-19 04:53:00,42.5,42.0,30.03,West,281,0.0,3.0,98,0.00,,,0.00,weatherlink.com 1.10,2013-03-19 08:53:00,
2013-03-19 05:08:00,43.4,43.0,30.04,SSW,200,0.0,3.0,98,0.00,,,0.00,weatherlink.com 1.10,2013-03-19 09:08:00,
2013-03-19 05:23:00,43.6,43.0,30.05,South,169,0.0,5.0,98,0.00,,,0.00,weatherlink.com 1.10,2013-03-19 09:23:00,
2013-03-19 05:38:00,43.8,43.0,30.05,SE,142,1.0,2.0,98,0.00,,,0.00,weatherlink.com 1.10,2013-03-19 09:38:00,
2013-03-19 05:53:00,43.4,43.0,30.05,North,354,5.0,5.0,97,0.00,,,0.00,weatherlink.com 1.10,2013-03-19 09:53:00,
2013-03-19 06:08:00,43.7,42.0,30.06,West,281,1.0,3.0,93,0.00,,,0.00,weatherlink.com 1.10,2013-03-19 10:08:00,
2013-03-19 06:23:00,43.4,41.0,30.07,WSW,255,0.0,3.0,92,0.00,,,0.00,weatherlink.com 1.10,2013-03-19 10:23:00,
2013-03-19 06:38:00,43.1,40.0,30.08,SW,218,1.0,5.0,89,0.00,,,0.00,weatherlink.com 1.10,2013-03-19 10:38:00,
2013-03-19 06:53:00,42.6,40.0,30.09,WNW,294,0.0,3.0,90,0.00,,,0.00,weatherlink.com 1.10,2013-03-19 10:53:00,
2013-03-19 07:08:00,42.0,39.0,30.09,West,274,1.0,9.0,90,0.00,,,0.00,weatherlink.com 1.10,2013-03-19 11:08:00,
2013-03-19 07:38:00,38.9,37.0,30.12,North,358,2.0,4.0,93,0.00,,,0.00,weatherlink.com 1.10,2013-03-19 11:38:00,
2013-03-19 07:53:00,37.6,34.0,30.14,WNW,288,4.0,5.0,88,0.00,,,0.00,weatherlink.com 1.10,2013-03-19 11:53:00,
2013-03-19 08:08:00,36.4,32.0,30.14,WNW,284,1.0,4.0,85,0.00,,,0.00,weatherlink.com 1.10,2013-03-19 12:08:00,
2013-03-19 08:23:00,35.0,30.0,30.14,SW,229,1.0,6.0,81,0.00,,,0.00,weatherlink.com 1.10,2013-03-19 12:23:00,
2013-03-19 08:38:00,34.4,29.0,30.14,SW,219,1.0,3.0,82,0.00,,,0.00,weatherlink.com 1.10,2013-03-19 12:38:00,
2013-03-19 08:53:00,34.3,28.0,30.14,WSW,252,1.0,2.0,77,0.00,,,0.00,weatherlink.com 1.10,2013-03-19 12:53:00,
2013-03-19 09:08:00,34.6,28.0,30.15,SW,235,0.0,4.0,76,0.00,,,0.00,weatherlink.com 1.10,2013-03-19 13:08:00,
2013-03-19 09:23:00,34.9,27.0,30.14,SSW,212,1.0,3.0,72,0.00,,,0.00,weatherlink.com 1.10,2013-03-19 13:23:00,
2013-03-19 09:38:00,36.3,24.0,30.14,North,8,0.0,2.0,61,0.00,,,0.00,weatherlink.com 1.10,2013-03-19 13:38:00,
2013-03-19 09:53:00,37.7,23.0,30.13,WNW,284,0.0,3.0,56,0.00,,,0.00,weatherlink.com 1.10,2013-03-19 13:53:00,
2013-03-19 10:08:00,39.1,23.0,30.14,WNW,298,0.0,3.0,52,0.00,,,0.00,weatherlink.com 1.10,2013-03-19 14:08:00,
2013-03-19 10:23:00,40.0,17.0,30.14,NNW,328,2.0,4.0,39,0.00,,,0.00,weatherlink.com 1.10,2013-03-19 14:23:00,
2013-03-19 10:38:00,41.3,22.0,30.15,NNE,12,0.0,2.0,47,0.00,,,0.00,weatherlink.com 1.10,2013-03-19 14:38:00,
2013-03-19 10:53:00,42.5,23.0,30.15,NNW,340,1.0,3.0,46,0.00,,,0.00,weatherlink.com 1.10,2013-03-19 14:53:00,
2013-03-19 11:09:00,44.3,27.0,30.16,ESE,113,0.0,2.0,52,0.00,,,0.00,weatherlink.com 1.10,2013-03-19 15:09:00,
2013-03-19 11:24:00,46.8,28.0,30.17,NNW,338,0.0,2.0,48,0.00,,,0.00,weatherlink.com 1.10,2013-03-19 15:24:00,
2013-03-19 11:39:00,47.1,25.0,30.17,NW,308,3.0,3.0,43,0.00,,,0.00,weatherlink.com 1.10,2013-03-19 15:39:00,
2013-03-19 11:54:00,47.9,28.0,30.17,NW,308,2.0,5.0,47,0.00,,,0.00,weatherlink.com 1.10,2013-03-19 15:54:00,
2013-03-19 12:09:00,48.0,29.0,30.17,NW,305,5.0,7.0,48,0.00,,,0.00,weatherlink.com 1.10,2013-03-19 16:09:00,
2013-03-19 12:24:00,47.7,26.0,30.17,NNE,18,5.0,6.0,43,0.00,,,0.00,weatherlink.com 1.10,2013-03-19 16:24:00,
2013-03-19 12:39:00,48.4,26.0,30.17,NW,325,2.0,9.0,42,0.00,,,0.00,weatherlink.com 1.10,2013-03-19 16:39:00,
2013-03-19 12:54:00,49.3,24.0,30.16,West,270,2.0,6.0,38,0.00,,,0.00,weatherlink.com 1.10,2013-03-19 16:54:00,
2013-03-19 13:09:00,50.4,23.0,30.16,NE,40,3.0,8.0,34,0.00,,,0.00,weatherlink.com 1.10,2013-03-19 17:09:00,
2013-03-19 13:24:00,50.3,23.0,30.16,NW,321,2.0,7.0,34,0.00,,,0.00,weatherlink.com 1.10,2013-03-19 17:24:00,
2013-03-19 13:39:00,51.4,23.0,30.16,WNW,295,3.0,8.0,33,0.00,,,0.00,weatherlink.com 1.10,2013-03-19 17:39:00,
2013-03-19 13:54:00,52.4,21.0,30.16,NNE,29,1.0,9.0,29,0.00,,,0.00,weatherlink.com 1.10,2013-03-19 17:54:00,
2013-03-19 14:09:00,52.9,23.0,30.16,WNW,288,4.0,9.0,31,0.00,,,0.00,weatherlink.com 1.10,2013-03-19 18:09:00,
2013-03-19 14:24:00,53.0,25.0,30.16,NW,325,2.0,6.0,34,0.00,,,0.00,weatherlink.com 1.10,2013-03-19 18:24:00,
2013-03-19 14:39:00,53.4,25.0,30.15,NW,305,3.0,5.0,34,0.00,,,0.00,weatherlink.com 1.10,2013-03-19 18:39:00,
2013-03-19 14:54:00,53.4,21.0,30.16,WNW,298,3.0,6.0,28,0.00,,,0.00,weatherlink.com 1.10,2013-03-19 18:54:00,
2013-03-19 15:09:00,52.7,23.0,30.16,WNW,288,4.0,10.0,31,0.00,,,0.00,weatherlink.com 1.10,2013-03-19 19:09:00,
2013-03-19 15:24:00,51.8,20.0,30.16,South,172,6.0,16.0,29,0.00,,,0.00,weatherlink.com 1.10,2013-03-19 19:24:00,
2013-03-19 15:39:00,51.1,20.0,30.17,SW,236,3.0,12.0,30,0.00,,,0.00,weatherlink.com 1.10,2013-03-19 19:39:00,
2013-03-19 15:54:00,51.0,25.0,30.17,North,9,2.0,9.0,36,0.00,,,0.00,weatherlink.com 1.10,2013-03-19 19:54:00,
2013-03-19 16:09:00,51.1,25.0,30.16,East,84,1.0,9.0,37,0.00,,,0.00,weatherlink.com 1.10,2013-03-19 20:09:00,
2013-03-19 16:24:00,50.7,24.0,30.17,NE,42,1.0,12.0,35,0.00,,,0.00,weatherlink.com 1.10,2013-03-19 20:24:00,
2013-03-19 16:39:00,50.4,23.0,30.17,WNW,294,0.0,8.0,34,0.00,,,0.00,weatherlink.com 1.10,2013-03-19 20:39:00,
2013-03-19 16:54:00,50.6,25.0,30.17,WNW,297,3.0,5.0,37,0.00,,,0.00,weatherlink.com 1.10,2013-03-19 20:54:00,
2013-03-19 17:09:00,51.0,23.0,30.18,WNW,295,3.0,8.0,34,0.00,,,0.00,weatherlink.com 1.10,2013-03-19 21:09:00,
2013-03-19 17:24:00,50.1,24.0,30.17,NNE,29,2.0,6.0,36,0.00,,,0.00,weatherlink.com 1.10,2013-03-19 21:24:00,
2013-03-19 17:39:00,49.6,23.0,30.18,NNE,22,2.0,5.0,35,0.00,,,0.00,weatherlink.com 1.10,2013-03-19 21:39:00,
2013-03-19 17:54:00,48.7,25.0,30.18,WNW,294,5.0,8.0,39,0.00,,,0.00,weatherlink.com 1.10,2013-03-19 21:54:00,
2013-03-19 18:09:00,48.1,24.0,30.18,WSW,238,2.0,6.0,39,0.00,,,0.00,weatherlink.com 1.10,2013-03-19 22:09:00,
2013-03-19 18:24:00,47.5,22.0,30.18,NNW,328,3.0,5.0,37,0.00,,,0.00,weatherlink.com 1.10,2013-03-19 22:24:00,
2013-03-19 18:39:00,47.3,23.0,30.18,ESE,103,1.0,4.0,38,0.00,,,0.00,weatherlink.com 1.10,2013-03-19 22:39:00,
2013-03-19 18:54:00,46.3,21.0,30.18,SSW,204,0.0,6.0,36,0.00,,,0.00,weatherlink.com 1.10,2013-03-19 22:54:00,
2013-03-19 19:09:00,46.0,17.0,30.20,NW,304,0.0,7.0,31,0.00,,,0.00,weatherlink.com 1.10,2013-03-19 23:09:00,
2013-03-19 19:25:00,44.9,17.0,30.20,NE,39,1.0,5.0,32,0.00,,,0.00,weatherlink.com 1.10,2013-03-19 23:25:00,
2013-03-19 19:39:00,44.2,15.0,30.20,ESE,109,1.0,7.0,31,0.00,,,0.00,weatherlink.com 1.10,2013-03-19 23:39:00,
2013-03-19 19:55:00,43.7,15.0,30.21,East,98,1.0,6.0,31,0.00,,,0.00,weatherlink.com 1.10,2013-03-19 23:55:00,
2013-03-19 20:10:00,43.5,15.0,30.21,SW,229,1.0,3.0,31,0.00,,,0.00,weatherlink.com 1.10,2013-03-20 00:10:00,
2013-03-19 20:25:00,42.7,12.0,30.22,WNW,293,2.0,6.0,29,0.00,,,0.00,weatherlink.com 1.10,2013-03-20 00:25:00,
2013-03-19 20:40:00,42.2,12.0,30.22,SE,139,0.0,8.0,29,0.00,,,0.00,weatherlink.com 1.10,2013-03-20 00:40:00,
2013-03-19 20:55:00,41.4,13.0,30.22,SSE,167,0.0,8.0,31,0.00,,,0.00,weatherlink.com 1.10,2013-03-20 00:55:00,
2013-03-19 21:10:00,40.6,11.0,30.22,WSW,254,0.0,4.0,30,0.00,,,0.00,weatherlink.com 1.10,2013-03-20 01:10:00,
2013-03-19 21:25:00,39.5,14.0,30.23,SSE,150,1.0,2.0,36,0.00,,,0.00,weatherlink.com 1.10,2013-03-20 01:25:00,
2013-03-19 21:40:00,38.9,14.0,30.23,South,187,2.0,3.0,37,0.00,,,0.00,weatherlink.com 1.10,2013-03-20 01:40:00,
2013-03-19 21:55:00,38.9,14.0,30.23,South,176,1.0,3.0,37,0.00,,,0.00,weatherlink.com 1.10,2013-03-20 01:55:00,
2013-03-19 22:10:00,38.1,14.0,30.23,ENE,67,0.0,3.0,37,0.00,,,0.00,weatherlink.com 1.10,2013-03-20 02:10:00,
2013-03-19 22:25:00,38.3,13.0,30.23,SSE,167,0.0,5.0,35,0.00,,,0.00,weatherlink.com 1.10,2013-03-20 02:25:00,
2013-03-19 22:40:00,37.7,16.0,30.23,SSE,150,0.0,3.0,41,0.00,,,0.00,weatherlink.com 1.10,2013-03-20 02:40:00,
2013-03-19 22:55:00,36.9,14.0,30.24,South,169,0.0,2.0,39,0.00,,,0.00,weatherlink.com 1.10,2013-03-20 02:55:00,
2013-03-19 23:10:00,36.5,16.0,30.24,SSE,163,1.0,3.0,43,0.00,,,0.00,weatherlink.com 1.10,2013-03-20 03:10:00,
2013-03-19 23:25:00,36.3,15.0,30.25,SW,219,1.0,2.0,41,0.00,,,0.00,weatherlink.com 1.10,2013-03-20 03:25:00,
2013-03-19 23:40:00,35.8,15.0,30.24,West,280,2.0,2.0,43,0.00,,,0.00,weatherlink.com 1.10,2013-03-20 03:40:00,
2013-03-19 23:55:00,34.8,16.0,30.25,SSE,156,0.0,1.0,47,0.00,,,0.00,weatherlink.com 1.10,2013-03-20 03:55:00,